Time;durP1;ratioP1;P1;durP2;ratioP2;P2;SDS_P1;SDS_P2;PMS_P1;PMS_P2;Temp;Humidity;BMP_temperature;BMP_pressure;BME280_temperature;BME280_humidity;BME280_pressure;Samples;Min_cycle;Max_cycle;Signal;HPM_P1;HPM_P2
2023/04/15 00:01:23;;;;;;;;;;;6.70;99.90;;;;;;5174891;27;20356;-42
2023/04/15 00:03:53;;;;;;;;;;;6.70;99.90;;;;;;5174981;27;19907;-41
2023/04/15 00:06:19;;;;;;;;;;;6.70;99.90;;;;;;5174102;27;20432;-42
2023/04/15 00:08:45;;;;;;;;;;;6.70;99.90;;;;;;5174550;27;20361;-41
2023/04/15 00:11:11;;;;;;;;;;;6.70;99.90;;;;;;5174934;27;19917;-42
2023/04/15 00:13:37;;;;;;;;;;;6.70;99.90;;;;;;5174355;27;19907;-41
2023/04/15 00:16:02;;;;;;;;;;;6.70;99.90;;;;;;5174872;27;19907;-41
2023/04/15 00:18:28;;;;;;;;;;;6.60;99.90;;;;;;5176809;27;20375;-41
2023/04/15 00:20:54;;;;;;;;;;;6.60;99.90;;;;;;5178062;27;20063;-41
2023/04/15 00:23:19;;;;;;;;;;;6.60;99.90;;;;;;5178683;27;20345;-43
2023/04/15 00:25:45;;;;;;;;;;;6.60;99.90;;;;;;5170565;27;20255;-42
2023/04/15 00:28:11;;;;;;;;;;;6.50;99.90;;;;;;5177950;27;19918;-40
2023/04/15 00:30:36;;;;;;;;;;;6.50;99.90;;;;;;5178323;27;19914;-41
2023/04/15 00:33:02;;;;;;;;;;;6.50;99.90;;;;;;5178637;27;19950;-42
2023/04/15 00:35:28;;;;;;;;;;;6.40;99.90;;;;;;5171101;27;19907;-41
2023/04/15 00:37:53;;;;;;;;;;;6.40;99.90;;;;;;5157712;27;20268;-42
2023/04/15 00:40:20;;;;;;;;;;;6.40;99.90;;;;;;5157464;27;19915;-41
2023/04/15 00:42:46;;;;;;;;;;;6.30;99.90;;;;;;5156847;27;19915;-41
2023/04/15 00:45:12;;;;;;;;;;;6.30;99.90;;;;;;5157492;27;19911;-42
2023/04/15 00:47:40;;;;;;;;;;;6.30;99.90;;;;;;5156550;27;19907;-41
2023/04/15 00:50:06;;;;;;;;;;;6.30;99.90;;;;;;5157388;27;19907;-42
2023/04/15 00:52:31;;;;;;;;;;;6.30;99.90;;;;;;5157078;27;19917;-42
2023/04/15 00:54:57;;;;;;;;;;;6.30;99.90;;;;;;5156564;27;19907;-42
2023/04/15 00:57:23;;;;;;;;;;;6.30;99.90;;;;;;5171179;27;20365;-40
2023/04/15 00:59:48;;;;;;;;;;;6.30;99.90;;;;;;5177928;27;19919;-41
2023/04/15 01:02:14;;;;;;;;;;;6.30;99.90;;;;;;5177304;27;20144;-41
2023/04/15 01:04:40;;;;;;;;;;;6.30;99.90;;;;;;5177709;27;19970;-42
2023/04/15 01:07:05;;;;;;;;;;;6.30;99.90;;;;;;5177442;27;19911;-41
2023/04/15 01:09:32;;;;;;;;;;;6.30;99.90;;;;;;5177040;27;20002;-43
2023/04/15 01:11:57;;;;;;;;;;;6.20;99.90;;;;;;5178085;27;19913;-42
2023/04/15 01:14:24;;;;;;;;;;;6.30;99.90;;;;;;5177754;27;20001;-41
2023/04/15 01:16:49;;;;;;;;;;;6.30;99.90;;;;;;5176968;27;19906;-41
2023/04/15 01:19:16;;;;;;;;;;;6.20;99.90;;;;;;5177741;27;19917;-42
2023/04/15 01:21:42;;;;;;;;;;;6.20;99.90;;;;;;5177479;27;20357;-42
2023/04/15 01:24:09;;;;;;;;;;;6.20;99.90;;;;;;5176884;27;19921;-41
2023/04/15 01:26:38;;;;;;;;;;;6.10;99.90;;;;;;5177483;27;19911;-41
2023/04/15 01:29:04;;;;;;;;;;;6.10;99.90;;;;;;5176801;27;19993;-42
2023/04/15 01:31:29;;;;;;;;;;;6.10;99.90;;;;;;5176672;27;20357;-42
2023/04/15 01:33:55;;;;;;;;;;;6.10;99.90;;;;;;5177441;27;19906;-41
2023/04/15 01:36:20;;;;;;;;;;;6.00;99.90;;;;;;5177049;27;19911;-41
2023/04/15 01:38:46;;;;;;;;;;;6.00;99.90;;;;;;5176234;27;19911;-42
2023/04/15 01:41:12;;;;;;;;;;;6.00;99.90;;;;;;5177289;27;19915;-41
2023/04/15 01:43:38;;;;;;;;;;;6.00;99.90;;;;;;5177167;27;19915;-42
2023/04/15 01:46:04;;;;;;;;;;;6.00;99.90;;;;;;5176589;27;20322;-43
2023/04/15 01:48:29;;;;;;;;;;;5.90;99.90;;;;;;5176978;27;19907;-42
2023/04/15 01:50:56;;;;;;;;;;;5.90;99.90;;;;;;5176359;27;20284;-41
2023/04/15 01:53:23;;;;;;;;;;;5.90;99.90;;;;;;5176937;27;19969;-42
2023/04/15 01:55:48;;;;;;;;;;;5.80;99.90;;;;;;5176924;27;20361;-41
2023/04/15 01:58:14;;;;;;;;;;;5.80;99.90;;;;;;5176219;27;19939;-41
2023/04/15 02:00:40;;;;;;;;;;;5.80;99.90;;;;;;5176676;27;19957;-41
2023/04/15 02:03:05;;;;;;;;;;;5.70;99.90;;;;;;5176756;27;19951;-41
2023/04/15 02:05:31;;;;;;;;;;;5.70;99.90;;;;;;5175960;27;19949;-40
2023/04/15 02:07:56;;;;;;;;;;;5.70;99.90;;;;;;5176481;27;19952;-41
2023/04/15 02:10:22;;;;;;;;;;;5.70;99.90;;;;;;5176496;27;19907;-41
2023/04/15 02:12:47;;;;;;;;;;;5.70;99.90;;;;;;5175818;27;20043;-40
2023/04/15 02:15:13;;;;;;;;;;;5.60;99.90;;;;;;5176497;27;19910;-42
2023/04/15 02:17:38;;;;;;;;;;;5.60;99.90;;;;;;5176413;27;20005;-43
2023/04/15 02:20:04;;;;;;;;;;;5.60;99.90;;;;;;5175521;27;19958;-43
2023/04/15 02:22:30;;;;;;;;;;;5.50;99.90;;;;;;5176338;27;19906;-41
2023/04/15 02:24:56;;;;;;;;;;;5.50;99.90;;;;;;5176494;27;19920;-41
2023/04/15 02:27:21;;;;;;;;;;;5.50;99.90;;;;;;5175574;27;19917;-41
2023/04/15 02:29:47;;;;;;;;;;;5.50;99.90;;;;;;5176043;27;19946;-41
2023/04/15 02:32:12;;;;;;;;;;;5.50;99.90;;;;;;5176310;27;19907;-42
2023/04/15 02:34:40;;;;;;;;;;;5.50;99.90;;;;;;5175287;27;19910;-41
2023/04/15 02:37:06;;;;;;;;;;;5.50;99.90;;;;;;5175621;27;19915;-41
2023/04/15 02:39:31;;;;;;;;;;;5.40;99.90;;;;;;5175712;27;19966;-41
2023/04/15 02:41:58;;;;;;;;;;;5.40;99.90;;;;;;5174620;27;19964;-41
2023/04/15 02:44:24;;;;;;;;;;;5.40;99.90;;;;;;5175963;27;20425;-42
2023/04/15 02:46:51;;;;;;;;;;;5.40;99.90;;;;;;5175993;27;19949;-41
2023/04/15 02:49:17;;;;;;;;;;;5.40;99.90;;;;;;5175330;27;19930;-41
2023/04/15 02:51:42;;;;;;;;;;;5.30;99.90;;;;;;5175764;27;20360;-42
2023/04/15 02:54:08;;;;;;;;;;;5.30;99.90;;;;;;5175601;27;19907;-41
2023/04/15 02:56:34;;;;;;;;;;;5.30;99.90;;;;;;5175200;27;19910;-42
2023/04/15 02:58:59;;;;;;;;;;;5.20;99.90;;;;;;5175579;27;19911;-42
2023/04/15 03:01:26;;;;;;;;;;;5.20;99.90;;;;;;5174883;27;19911;-43
2023/04/15 03:03:51;;;;;;;;;;;5.20;99.90;;;;;;5175557;27;20357;-43
2023/04/15 03:06:16;;;;;;;;;;;5.20;99.90;;;;;;5175671;27;19920;-41
2023/04/15 03:08:42;;;;;;;;;;;5.10;99.90;;;;;;5174817;27;20262;-42
2023/04/15 03:11:07;;;;;;;;;;;5.10;99.90;;;;;;5175575;27;19914;-41
2023/04/15 03:13:33;;;;;;;;;;;5.10;99.90;;;;;;5175455;27;19907;-41
2023/04/15 03:15:58;;;;;;;;;;;5.10;99.90;;;;;;5174741;27;19907;-41
2023/04/15 03:18:24;;;;;;;;;;;5.00;99.90;;;;;;5175084;27;20022;-42
2023/04/15 03:20:49;;;;;;;;;;;5.00;99.90;;;;;;5168725;27;19971;-43
2023/04/15 03:23:15;;;;;;;;;;;5.00;99.90;;;;;;5162181;27;19953;-42
2023/04/15 03:25:40;;;;;;;;;;;5.00;99.90;;;;;;5167214;27;19911;-42
2023/04/15 03:28:06;;;;;;;;;;;4.90;99.90;;;;;;5154330;27;19911;-43
2023/04/15 03:30:31;;;;;;;;;;;4.90;99.90;;;;;;5153571;27;20276;-43
2023/04/15 03:32:57;;;;;;;;;;;4.90;99.90;;;;;;5154353;27;19907;-41
2023/04/15 03:35:22;;;;;;;;;;;4.90;99.90;;;;;;5154549;27;19907;-42
2023/04/15 03:37:48;;;;;;;;;;;4.90;99.90;;;;;;5168619;27;19974;-41
2023/04/15 03:40:13;;;;;;;;;;;4.90;99.90;;;;;;5175141;27;19915;-42
2023/04/15 03:42:39;;;;;;;;;;;4.80;99.90;;;;;;5175138;27;19934;-41
2023/04/15 03:45:05;;;;;;;;;;;4.80;99.90;;;;;;5174452;27;19906;-42
2023/04/15 03:47:30;;;;;;;;;;;4.80;99.90;;;;;;5175112;27;19907;-42
2023/04/15 03:49:56;;;;;;;;;;;4.80;99.90;;;;;;5175178;27;19907;-41
2023/04/15 03:52:21;;;;;;;;;;;4.80;99.90;;;;;;5176286;27;19911;-42
2023/04/15 03:54:47;;;;;;;;;;;4.80;99.90;;;;;;5179501;27;19910;-41
2023/04/15 03:57:12;;;;;;;;;;;4.80;99.90;;;;;;5179049;27;19954;-43
2023/04/15 03:59:38;;;;;;;;;;;4.80;99.90;;;;;;5166908;27;19976;-42
2023/04/15 04:02:03;;;;;;;;;;;4.80;99.90;;;;;;5158390;27;19954;-41
2023/04/15 04:04:29;;;;;;;;;;;4.90;99.90;;;;;;5157841;27;19907;-43
2023/04/15 04:06:54;;;;;;;;;;;4.80;99.90;;;;;;5158245;27;20299;-43
2023/04/15 04:09:20;;;;;;;;;;;4.80;99.90;;;;;;5158269;27;19908;-43
2023/04/15 04:11:45;;;;;;;;;;;4.70;99.90;;;;;;5157360;27;20353;-42
2023/04/15 04:14:11;;;;;;;;;;;4.80;99.90;;;;;;5158257;27;19907;-42
2023/04/15 04:16:36;;;;;;;;;;;4.80;99.90;;;;;;5167395;27;19906;-42
2023/04/15 04:19:01;;;;;;;;;;;4.70;99.90;;;;;;5177993;27;19914;-41
2023/04/15 04:21:27;;;;;;;;;;;4.70;99.90;;;;;;5163482;27;20032;-41
2023/04/15 04:23:52;;;;;;;;;;;4.70;99.90;;;;;;5157827;27;19911;-41
2023/04/15 04:26:18;;;;;;;;;;;4.70;99.90;;;;;;5157007;27;19980;-43
2023/04/15 04:28:44;;;;;;;;;;;4.70;99.90;;;;;;5157547;27;19996;-42
2023/04/15 04:31:09;;;;;;;;;;;4.60;99.90;;;;;;5176739;27;19914;-41
2023/04/15 04:33:35;;;;;;;;;;;4.60;99.90;;;;;;5177829;27;19910;-41
2023/04/15 04:36:00;;;;;;;;;;;4.60;99.90;;;;;;5178683;27;19907;-41
2023/04/15 04:38:26;;;;;;;;;;;4.60;99.90;;;;;;5178408;27;19906;-41
2023/04/15 04:40:51;;;;;;;;;;;4.60;99.90;;;;;;5177726;27;20390;-42
2023/04/15 04:43:17;;;;;;;;;;;4.60;99.90;;;;;;5178445;27;19906;-42
2023/04/15 04:45:42;;;;;;;;;;;4.50;99.90;;;;;;5178007;27;19942;-43
2023/04/15 04:48:09;;;;;;;;;;;4.50;99.90;;;;;;5177535;27;20507;-42
2023/04/15 04:50:35;;;;;;;;;;;4.50;99.90;;;;;;5159548;27;20002;-41
2023/04/15 04:53:01;;;;;;;;;;;4.50;99.90;;;;;;5157426;27;19907;-42
2023/04/15 04:55:26;;;;;;;;;;;4.50;99.90;;;;;;5174976;27;19911;-42
2023/04/15 04:57:52;;;;;;;;;;;4.50;99.90;;;;;;5171735;27;20380;-42
2023/04/15 05:00:18;;;;;;;;;;;4.40;99.90;;;;;;5172367;27;19915;-44
2023/04/15 05:02:43;;;;;;;;;;;4.40;99.90;;;;;;5160430;27;19918;-41
2023/04/15 05:05:10;;;;;;;;;;;4.40;99.90;;;;;;5168402;27;20370;-42
2023/04/15 05:07:36;;;;;;;;;;;4.40;99.90;;;;;;5171027;27;20384;-41
2023/04/15 05:10:02;;;;;;;;;;;4.40;99.90;;;;;;5176930;27;19907;-43
2023/04/15 05:12:27;;;;;;;;;;;4.50;99.90;;;;;;5157030;27;19907;-41
2023/04/15 05:14:53;;;;;;;;;;;4.50;99.90;;;;;;5155898;27;20341;-41
2023/04/15 05:17:18;;;;;;;;;;;4.50;99.90;;;;;;5169291;27;19921;-42
2023/04/15 05:19:44;;;;;;;;;;;4.50;99.90;;;;;;5158304;27;19915;-42
2023/04/15 05:22:09;;;;;;;;;;;4.50;99.90;;;;;;5155285;27;20107;-42
2023/04/15 05:24:35;;;;;;;;;;;4.50;99.90;;;;;;5160870;27;20391;-41
2023/04/15 05:27:00;;;;;;;;;;;4.50;99.90;;;;;;5176704;27;19911;-41
2023/04/15 05:29:26;;;;;;;;;;;4.50;99.90;;;;;;5175864;27;19919;-41
2023/04/15 05:31:51;;;;;;;;;;;4.50;99.90;;;;;;5176496;27;20010;-42
2023/04/15 05:34:17;;;;;;;;;;;4.60;99.90;;;;;;5176558;27;19963;-42
2023/04/15 05:36:42;;;;;;;;;;;4.60;99.90;;;;;;5176260;27;20398;-42
2023/04/15 05:39:08;;;;;;;;;;;4.60;99.90;;;;;;5176378;27;19958;-43
2023/04/15 05:41:34;;;;;;;;;;;4.70;99.90;;;;;;5176389;27;19919;-42
2023/04/15 05:43:59;;;;;;;;;;;4.80;99.90;;;;;;5175572;27;19913;-41
2023/04/15 05:46:25;;;;;;;;;;;4.80;99.90;;;;;;5176239;27;20281;-44
2023/04/15 05:48:50;;;;;;;;;;;4.90;99.90;;;;;;5176726;27;20360;-42
2023/04/15 05:51:16;;;;;;;;;;;4.90;99.90;;;;;;5175349;27;19915;-41
2023/04/15 05:53:41;;;;;;;;;;;5.00;99.90;;;;;;5176133;27;19915;-41
2023/04/15 05:56:07;;;;;;;;;;;5.00;99.90;;;;;;5175946;27;19913;-41
2023/04/15 05:58:32;;;;;;;;;;;5.10;99.90;;;;;;5175259;27;19911;-41
2023/04/15 06:00:58;;;;;;;;;;;5.10;99.90;;;;;;5175440;27;20430;-44
2023/04/15 06:03:24;;;;;;;;;;;5.20;99.90;;;;;;5176445;27;19907;-41
2023/04/15 06:05:49;;;;;;;;;;;5.20;99.90;;;;;;5174843;27;19910;-42
2023/04/15 06:08:15;;;;;;;;;;;5.30;99.90;;;;;;5176263;27;19933;-41
2023/04/15 06:10:40;;;;;;;;;;;5.40;99.90;;;;;;5176498;27;20307;-41
2023/04/15 06:13:06;;;;;;;;;;;5.50;99.90;;;;;;5175670;27;20109;-41
2023/04/15 06:15:32;;;;;;;;;;;5.60;99.90;;;;;;5175258;27;19910;-44
2023/04/15 06:17:58;;;;;;;;;;;5.70;99.90;;;;;;5174924;27;19979;-42
2023/04/15 06:20:23;;;;;;;;;;;5.80;99.90;;;;;;5168775;27;19925;-42
2023/04/15 06:22:49;;;;;;;;;;;6.00;99.90;;;;;;5176215;27;20009;-42
2023/04/15 06:25:14;;;;;;;;;;;6.10;99.90;;;;;;5175798;27;20019;-41
2023/04/15 06:27:40;;;;;;;;;;;6.30;99.90;;;;;;5173274;27;19922;-43
2023/04/15 06:30:06;;;;;;;;;;;6.40;99.90;;;;;;5162681;27;20348;-42
2023/04/15 06:32:32;;;;;;;;;;;6.60;99.90;;;;;;5155576;27;19918;-42
2023/04/15 06:34:57;;;;;;;;;;;6.70;99.90;;;;;;5156092;27;19994;-42
2023/04/15 06:37:22;;;;;;;;;;;6.80;99.90;;;;;;5154623;27;20389;-41
2023/04/15 06:39:48;;;;;;;;;;;7.00;99.90;;;;;;5154335;27;19915;-41
2023/04/15 06:42:14;;;;;;;;;;;7.10;99.90;;;;;;5155300;27;19907;-42
2023/04/15 06:44:39;;;;;;;;;;;7.20;99.90;;;;;;5155021;27;19907;-41
2023/04/15 06:47:05;;;;;;;;;;;7.30;99.90;;;;;;5168700;27;19911;-42
2023/04/15 06:49:30;;;;;;;;;;;7.40;99.90;;;;;;5175899;27;19950;-41
2023/04/15 06:51:56;;;;;;;;;;;7.50;99.90;;;;;;5175878;27;20010;-42
2023/04/15 06:54:22;;;;;;;;;;;7.60;99.90;;;;;;5175068;27;19907;-43
2023/04/15 06:56:47;;;;;;;;;;;7.60;99.90;;;;;;5176180;27;19939;-42
2023/04/15 06:59:13;;;;;;;;;;;7.70;99.90;;;;;;5175734;27;19907;-42
2023/04/15 07:01:41;;;;;;;;;;;7.80;99.90;;;;;;5175162;27;20015;-43
2023/04/15 07:04:07;;;;;;;;;;;7.90;99.90;;;;;;5175749;27;20001;-43
2023/04/15 07:06:32;;;;;;;;;;;8.00;99.90;;;;;;5175638;27;19950;-42
2023/04/15 07:08:58;;;;;;;;;;;8.10;99.90;;;;;;5174987;27;19951;-42
2023/04/15 07:11:25;;;;;;;;;;;8.10;99.90;;;;;;5175553;27;20460;-41
2023/04/15 07:13:50;;;;;;;;;;;8.20;99.90;;;;;;5175607;27;20229;-42
2023/04/15 07:16:16;;;;;;;;;;;8.30;99.90;;;;;;5174484;27;19918;-42
2023/04/15 07:18:42;;;;;;;;;;;8.40;99.90;;;;;;5175514;27;20253;-42
2023/04/15 07:21:07;;;;;;;;;;;8.40;99.90;;;;;;5174867;27;20425;-42
2023/04/15 07:23:33;;;;;;;;;;;8.50;99.90;;;;;;5174506;27;19911;-42
2023/04/15 07:25:59;;;;;;;;;;;8.60;99.90;;;;;;5175170;27;20367;-42
2023/04/15 07:28:24;;;;;;;;;;;8.70;99.90;;;;;;5174731;27;19926;-43
2023/04/15 07:30:50;;;;;;;;;;;8.70;99.90;;;;;;5174725;27;19906;-43
2023/04/15 07:33:15;;;;;;;;;;;8.70;99.90;;;;;;5175249;27;19907;-42
2023/04/15 07:35:41;;;;;;;;;;;8.80;99.90;;;;;;5174531;27;19907;-41
2023/04/15 07:38:07;;;;;;;;;;;8.90;99.90;;;;;;5175188;27;19960;-41
2023/04/15 07:40:33;;;;;;;;;;;9.00;99.90;;;;;;5175157;27;19962;-43
2023/04/15 07:42:58;;;;;;;;;;;9.00;99.90;;;;;;5174392;27;20001;-41
2023/04/15 07:45:23;;;;;;;;;;;9.10;99.90;;;;;;5175158;27;20318;-42
2023/04/15 07:47:52;;;;;;;;;;;9.10;99.90;;;;;;5174924;27;20010;-42
2023/04/15 07:50:18;;;;;;;;;;;9.20;99.90;;;;;;5174468;27;19906;-41
2023/04/15 07:52:44;;;;;;;;;;;9.20;99.90;;;;;;5175124;27;19941;-43
2023/04/15 07:55:10;;;;;;;;;;;9.30;99.90;;;;;;5175138;27;20379;-41
2023/04/15 07:57:36;;;;;;;;;;;9.40;99.90;;;;;;5174252;27;19907;-41
2023/04/15 08:00:04;;;;;;;;;;;9.50;99.90;;;;;;5175206;27;19922;-42
2023/04/15 08:02:30;;;;;;;;;;;9.60;99.90;;;;;;5174993;27;19914;-42
2023/04/15 08:04:56;;;;;;;;;;;9.70;99.90;;;;;;5174316;27;19907;-42
2023/04/15 08:07:22;;;;;;;;;;;9.80;99.90;;;;;;5175018;27;19906;-40
2023/04/15 08:09:47;;;;;;;;;;;9.90;99.90;;;;;;5175044;27;19906;-43
2023/04/15 08:12:13;;;;;;;;;;;9.90;99.90;;;;;;5174081;27;19907;-41
2023/04/15 08:14:39;;;;;;;;;;;10.00;99.90;;;;;;5174898;27;19918;-43
2023/04/15 08:17:05;;;;;;;;;;;10.10;99.90;;;;;;5174692;27;19911;-41
2023/04/15 08:19:30;;;;;;;;;;;10.20;99.90;;;;;;5174230;27;19918;-42
2023/04/15 08:21:56;;;;;;;;;;;10.10;99.90;;;;;;5174864;27;20280;-42
2023/04/15 08:24:22;;;;;;;;;;;10.10;99.90;;;;;;5174618;27;19949;-42
2023/04/15 08:26:47;;;;;;;;;;;10.10;99.90;;;;;;5173976;27;20301;-41
2023/04/15 08:29:13;;;;;;;;;;;10.00;99.90;;;;;;5174544;27;19948;-43
2023/04/15 08:31:38;;;;;;;;;;;9.90;99.90;;;;;;5175031;27;19968;-42
2023/04/15 08:34:04;;;;;;;;;;;9.90;99.90;;;;;;5174024;27;19989;-42
2023/04/15 08:36:31;;;;;;;;;;;9.90;99.90;;;;;;5174716;27;19907;-42
2023/04/15 08:38:56;;;;;;;;;;;9.90;99.90;;;;;;5175023;27;20413;-41
2023/04/15 08:41:23;;;;;;;;;;;9.80;99.90;;;;;;5178375;27;19918;-42
2023/04/15 08:43:53;;;;;;;;;;;9.70;99.90;;;;;;5178592;27;19906;-43
2023/04/15 08:46:19;;;;;;;;;;;9.70;99.90;;;;;;5177461;27;19914;-43
2023/04/15 08:48:46;;;;;;;;;;;9.60;99.90;;;;;;5178443;27;19914;-41
2023/04/15 08:51:15;;;;;;;;;;;9.60;99.90;;;;;;5178338;27;19947;-42
2023/04/15 08:53:41;;;;;;;;;;;9.60;99.90;;;;;;5177356;27;20377;-41
2023/04/15 08:56:09;;;;;;;;;;;9.70;99.90;;;;;;5178285;27;20001;-41
2023/04/15 08:58:35;;;;;;;;;;;9.70;99.90;;;;;;5178173;27;20089;-42
2023/04/15 09:01:00;;;;;;;;;;;9.70;99.90;;;;;;5177415;27;19922;-42
2023/04/15 09:03:27;;;;;;;;;;;9.70;99.90;;;;;;5178073;27;19906;-43
2023/04/15 09:05:53;;;;;;;;;;;9.70;99.90;;;;;;5178114;27;19993;-42
2023/04/15 09:08:18;;;;;;;;;;;9.60;99.90;;;;;;5177093;27;20006;-41
2023/04/15 09:10:44;;;;;;;;;;;9.60;99.90;;;;;;5177917;27;20443;-41
2023/04/15 09:13:09;;;;;;;;;;;9.70;99.90;;;;;;5177835;27;19907;-41
2023/04/15 09:15:37;;;;;;;;;;;9.70;99.90;;;;;;5176677;27;19957;-42
2023/04/15 09:18:03;;;;;;;;;;;9.70;99.90;;;;;;5177648;27;19946;-41
2023/04/15 09:20:28;;;;;;;;;;;9.80;99.90;;;;;;5177566;27;19965;-41
2023/04/15 09:22:54;;;;;;;;;;;10.00;99.90;;;;;;5176879;27;19906;-44
2023/04/15 09:25:29;;;;;;;;;;;10.10;99.90;;;;;;5177634;27;19907;-42
2023/04/15 09:27:56;;;;;;;;;;;10.10;99.90;;;;;;5177111;27;20365;-42
2023/04/15 09:30:21;;;;;;;;;;;10.30;99.90;;;;;;5176881;27;19938;-43
2023/04/15 09:32:51;;;;;;;;;;;10.30;99.90;;;;;;5177541;27;20268;-41
2023/04/15 09:35:16;;;;;;;;;;;10.30;99.90;;;;;;5176141;27;19963;-41
2023/04/15 09:37:42;;;;;;;;;;;10.30;99.90;;;;;;5177009;27;19918;-42
2023/04/15 09:40:08;;;;;;;;;;;10.30;99.90;;;;;;5177372;27;20010;-42
2023/04/15 09:42:34;;;;;;;;;;;10.30;99.90;;;;;;5176515;27;19907;-41
2023/04/15 09:45:10;;;;;;;;;;;10.30;99.90;;;;;;5177467;27;20314;-42
2023/04/15 09:47:36;;;;;;;;;;;10.20;99.90;;;;;;5176918;27;19911;-41
2023/04/15 09:50:02;;;;;;;;;;;10.20;99.90;;;;;;5176042;27;19914;-43
2023/04/15 09:52:28;;;;;;;;;;;10.20;99.90;;;;;;5177111;27;19907;-41
2023/04/15 09:54:56;;;;;;;;;;;10.20;99.90;;;;;;5177085;27;19907;-43
2023/04/15 09:57:22;;;;;;;;;;;10.20;99.90;;;;;;5176172;27;20369;-43
2023/04/15 09:59:48;;;;;;;;;;;10.10;99.90;;;;;;5177034;27;19914;-41
2023/04/15 10:02:14;;;;;;;;;;;10.10;99.90;;;;;;5176932;27;19907;-41
2023/04/15 10:04:40;;;;;;;;;;;10.10;99.90;;;;;;5175610;27;19913;-41
2023/04/15 10:07:08;;;;;;;;;;;10.00;99.90;;;;;;5176122;27;20022;-42
2023/04/15 10:09:34;;;;;;;;;;;10.10;99.90;;;;;;5155822;27;20028;-41
2023/04/15 10:12:01;;;;;;;;;;;10.20;99.90;;;;;;5155156;27;19997;-42
2023/04/15 10:14:27;;;;;;;;;;;10.20;99.90;;;;;;5155710;27;19965;-40
2023/04/15 10:16:55;;;;;;;;;;;10.30;99.90;;;;;;5155786;27;20013;-42
2023/04/15 10:19:23;;;;;;;;;;;10.30;99.90;;;;;;5154684;27;19971;-42
2023/04/15 10:21:49;;;;;;;;;;;10.30;99.90;;;;;;5155650;27;19960;-42
2023/04/15 10:24:15;;;;;;;;;;;10.30;99.90;;;;;;5155618;27;19958;-41
2023/04/15 10:26:41;;;;;;;;;;;10.30;99.90;;;;;;5174441;27;19918;-41
2023/04/15 10:29:08;;;;;;;;;;;10.20;99.90;;;;;;5176161;27;20289;-41
2023/04/15 10:31:34;;;;;;;;;;;10.20;99.90;;;;;;5175442;27;19955;-42
2023/04/15 10:34:04;;;;;;;;;;;10.20;99.90;;;;;;5175865;27;20280;-42
2023/04/15 10:36:29;;;;;;;;;;;10.20;99.90;;;;;;5175983;27;19911;-41
2023/04/15 10:38:55;;;;;;;;;;;10.30;99.90;;;;;;5175471;27;19952;-43
2023/04/15 10:41:22;;;;;;;;;;;10.40;99.90;;;;;;5175991;27;19958;-42
2023/04/15 10:43:52;;;;;;;;;;;10.50;99.90;;;;;;5176099;27;19911;-41
2023/04/15 10:46:21;;;;;;;;;;;10.60;99.90;;;;;;5174735;27;19910;-41
2023/04/15 10:48:51;;;;;;;;;;;10.50;99.90;;;;;;5176074;27;19907;-41
2023/04/15 10:51:25;;;;;;;;;;;10.50;99.90;;;;;;5175661;27;19911;-43
2023/04/15 10:53:55;;;;;;;;;;;10.50;99.90;;;;;;5175131;27;19911;-41
2023/04/15 10:56:20;;;;;;;;;;;10.50;99.90;;;;;;5175923;27;19968;-41
2023/04/15 10:58:46;;;;;;;;;;;10.50;99.90;;;;;;5175796;27;19999;-42
2023/04/15 11:01:12;;;;;;;;;;;10.50;99.90;;;;;;5174255;27;20272;-43
2023/04/15 11:03:39;;;;;;;;;;;10.40;99.90;;;;;;5175632;27;20377;-41
2023/04/15 11:06:05;;;;;;;;;;;10.40;99.90;;;;;;5175744;27;19911;-42
2023/04/15 11:08:49;;;;;;;;;;;10.50;99.90;;;;;;5174839;27;19907;-41
2023/04/15 11:11:15;;;;;;;;;;;10.60;99.90;;;;;;5175500;27;20369;-41
2023/04/15 11:13:47;;;;;;;;;;;10.60;99.90;;;;;;5174791;27;19907;-43
2023/04/15 11:16:12;;;;;;;;;;;10.60;99.90;;;;;;5174683;27;20235;-41
2023/04/15 11:18:38;;;;;;;;;;;10.60;99.90;;;;;;5175408;27;19917;-41
2023/04/15 11:21:05;;;;;;;;;;;10.50;99.90;;;;;;5174648;27;19922;-41
2023/04/15 11:23:36;;;;;;;;;;;10.50;99.90;;;;;;5175424;27;19913;-42
2023/04/15 11:26:05;;;;;;;;;;;10.50;99.90;;;;;;5175433;27;19907;-42
2023/04/15 11:28:31;;;;;;;;;;;10.60;99.90;;;;;;5155386;27;20308;-43
2023/04/15 11:30:57;;;;;;;;;;;10.60;99.90;;;;;;5175493;27;19918;-42
2023/04/15 11:33:24;;;;;;;;;;;10.70;99.90;;;;;;5174656;27;20084;-40
2023/04/15 11:35:54;;;;;;;;;;;10.70;99.90;;;;;;5174045;27;20369;-40
2023/04/15 11:38:20;;;;;;;;;;;10.70;99.90;;;;;;5175430;27;20006;-42
2023/04/15 11:40:45;;;;;;;;;;;10.80;99.90;;;;;;5175226;27;19918;-41
2023/04/15 11:43:12;;;;;;;;;;;10.80;99.90;;;;;;5174295;27;19998;-43
2023/04/15 11:45:47;;;;;;;;;;;10.80;99.90;;;;;;5175171;27;19907;-41
2023/04/15 11:48:13;;;;;;;;;;;10.70;99.90;;;;;;5175286;27;20306;-40
2023/04/15 11:50:42;;;;;;;;;;;10.70;99.90;;;;;;5174382;27;20005;-42
2023/04/15 11:53:08;;;;;;;;;;;10.70;99.90;;;;;;5175109;27;19948;-41
2023/04/15 11:56:00;;;;;;;;;;;10.90;99.90;;;;;;5174618;27;19915;-42
2023/04/15 11:58:26;;;;;;;;;;;11.00;99.90;;;;;;5171082;27;19928;-42
2023/04/15 12:00:58;;;;;;;;;;;11.00;99.90;;;;;;5175165;27;19915;-40
2023/04/15 12:03:28;;;;;;;;;;;11.00;99.90;;;;;;5174170;27;19914;-43
2023/04/15 12:06:07;;;;;;;;;;;10.90;99.90;;;;;;5174886;27;19911;-40
2023/04/15 12:08:51;;;;;;;;;;;10.90;99.90;;;;;;5174937;27;19913;-41
2023/04/15 12:11:17;;;;;;;;;;;10.90;99.90;;;;;;5174298;27;19906;-40
2023/04/15 12:13:43;;;;;;;;;;;10.90;99.90;;;;;;5177387;27;19910;-42
2023/04/15 12:16:09;;;;;;;;;;;11.00;99.90;;;;;;5179090;27;20321;-42
2023/04/15 12:18:36;;;;;;;;;;;11.00;99.90;;;;;;5178178;27;19910;-40
2023/04/15 12:21:11;;;;;;;;;;;11.00;99.90;;;;;;5178955;27;19923;-41
2023/04/15 12:23:37;;;;;;;;;;;11.10;99.90;;;;;;5178849;27;19979;-42
2023/04/15 12:26:06;;;;;;;;;;;11.20;99.90;;;;;;5177879;27;19911;-40
2023/04/15 12:28:33;;;;;;;;;;;11.10;99.90;;;;;;5178397;27;19923;-41
2023/04/15 12:30:58;;;;;;;;;;;11.10;99.90;;;;;;5178088;27;20018;-42
2023/04/15 12:33:31;;;;;;;;;;;11.10;99.90;;;;;;5178660;27;20400;-41
2023/04/15 12:35:57;;;;;;;;;;;11.10;99.90;;;;;;5178855;27;19907;-41
2023/04/15 12:38:22;;;;;;;;;;;11.10;99.90;;;;;;5177773;27;20364;-41
2023/04/15 12:40:47;;;;;;;;;;;11.10;99.90;;;;;;5178334;27;19914;-42
2023/04/15 12:43:13;;;;;;;;;;;11.10;99.90;;;;;;5178558;27;19913;-42
2023/04/15 12:45:38;;;;;;;;;;;11.00;99.90;;;;;;5177630;27;20360;-41
2023/04/15 12:48:04;;;;;;;;;;;11.10;99.90;;;;;;5178619;27;19914;-41
2023/04/15 12:50:29;;;;;;;;;;;11.10;99.90;;;;;;5178230;27;20008;-41
2023/04/15 12:52:55;;;;;;;;;;;11.20;99.90;;;;;;5177481;27;20051;-40
2023/04/15 12:55:21;;;;;;;;;;;11.30;99.90;;;;;;5164151;27;19918;-41
2023/04/15 12:57:47;;;;;;;;;;;11.20;99.90;;;;;;5157371;27;20405;-40
2023/04/15 13:00:13;;;;;;;;;;;11.10;99.90;;;;;;5156432;27;19915;-41
2023/04/15 13:02:38;;;;;;;;;;;11.00;99.90;;;;;;5158919;27;19999;-40
2023/04/15 13:05:04;;;;;;;;;;;11.00;99.90;;;;;;5177782;27;20319;-40
2023/04/15 13:07:30;;;;;;;;;;;11.00;99.90;;;;;;5177113;27;19906;-42
2023/04/15 13:09:55;;;;;;;;;;;10.90;99.90;;;;;;5177942;27;19917;-40
2023/04/15 13:12:21;;;;;;;;;;;10.90;99.90;;;;;;5177941;27;19914;-41
2023/04/15 13:14:46;;;;;;;;;;;10.80;99.90;;;;;;5175277;27;20357;-41
2023/04/15 13:17:12;;;;;;;;;;;10.80;99.90;;;;;;5177919;27;19906;-40
2023/04/15 13:19:37;;;;;;;;;;;10.80;99.90;;;;;;5177691;27;20005;-41
2023/04/15 13:22:03;;;;;;;;;;;10.70;99.90;;;;;;5177044;27;19911;-40
2023/04/15 13:24:28;;;;;;;;;;;10.70;99.90;;;;;;5177174;27;19907;-40
2023/04/15 13:26:54;;;;;;;;;;;10.60;99.90;;;;;;5177599;27;19966;-40
2023/04/15 13:29:19;;;;;;;;;;;10.60;99.90;;;;;;5176557;27;19919;-43
2023/04/15 13:31:45;;;;;;;;;;;10.60;99.90;;;;;;5177698;27;19913;-41
2023/04/15 13:34:10;;;;;;;;;;;10.50;99.90;;;;;;5177291;27;20289;-41
2023/04/15 13:36:35;;;;;;;;;;;10.50;99.90;;;;;;5176928;27;19914;-41
2023/04/15 13:39:02;;;;;;;;;;;10.40;99.90;;;;;;5177530;27;19907;-42
2023/04/15 13:41:27;;;;;;;;;;;10.40;99.90;;;;;;5176471;27;20372;-41
2023/04/15 13:43:52;;;;;;;;;;;10.30;99.90;;;;;;5167270;27;19915;-40
2023/04/15 13:46:18;;;;;;;;;;;10.30;99.90;;;;;;5160407;27;20026;-42
2023/04/15 13:48:43;;;;;;;;;;;10.30;99.90;;;;;;5155488;27;19907;-42
2023/04/15 13:51:09;;;;;;;;;;;10.30;99.90;;;;;;5156349;27;20357;-41
2023/04/15 13:53:35;;;;;;;;;;;10.30;99.90;;;;;;5156152;27;19911;-41
2023/04/15 13:56:00;;;;;;;;;;;10.30;99.90;;;;;;5155416;27;19994;-40
2023/04/15 13:58:26;;;;;;;;;;;10.30;99.90;;;;;;5156116;27;19911;-42
2023/04/15 14:00:51;;;;;;;;;;;10.30;99.90;;;;;;5156022;27;20025;-41
2023/04/15 14:03:16;;;;;;;;;;;10.30;99.90;;;;;;5155290;27;19911;-41
2023/04/15 14:05:42;;;;;;;;;;;10.30;99.90;;;;;;5155912;27;19914;-42
2023/04/15 14:08:07;;;;;;;;;;;10.30;99.90;;;;;;5156019;27;19907;-40
2023/04/15 14:10:33;;;;;;;;;;;10.20;99.90;;;;;;5154940;27;19969;-42
2023/04/15 14:12:59;;;;;;;;;;;10.20;99.90;;;;;;5156151;27;19907;-40
2023/04/15 14:15:24;;;;;;;;;;;10.20;99.90;;;;;;5176271;27;20367;-40
2023/04/15 14:17:50;;;;;;;;;;;10.20;99.90;;;;;;5175957;27;19914;-40
2023/04/15 14:20:15;;;;;;;;;;;10.20;99.90;;;;;;5176531;27;19914;-42